createdAt,value
2018-03-24T00:00:41.833Z,992.42
2018-03-24T00:01:47.337Z,992.39
2018-03-24T00:02:52.851Z,992.38
2018-03-24T00:03:58.345Z,992.44
2018-03-24T00:05:03.859Z,992.44
2018-03-24T00:06:09.369Z,992.43
2018-03-24T00:07:14.874Z,992.43
2018-03-24T00:08:20.450Z,992.42
2018-03-24T00:09:25.892Z,992.41
2018-03-24T00:10:31.409Z,992.47
2018-03-24T00:11:36.919Z,992.45
2018-03-24T00:12:42.429Z,992.43
2018-03-24T00:13:47.939Z,992.39
2018-03-24T00:14:53.445Z,992.40
2018-03-24T00:15:58.948Z,992.35
2018-03-24T00:17:04.457Z,992.40
2018-03-24T00:18:09.967Z,992.36
2018-03-24T00:19:15.479Z,992.35
2018-03-24T00:20:20.995Z,992.39
2018-03-24T00:21:26.498Z,992.38
2018-03-24T00:22:32.008Z,992.38
2018-03-24T00:23:37.511Z,992.40
2018-03-24T00:24:43.033Z,992.39
2018-03-24T00:25:48.541Z,992.41
2018-03-24T00:26:54.039Z,992.36
2018-03-24T00:27:59.554Z,992.40
2018-03-24T00:29:05.057Z,992.36
2018-03-24T00:30:10.579Z,992.35
2018-03-24T00:31:16.073Z,992.29
2018-03-24T00:32:21.584Z,992.31
2018-03-24T00:33:27.106Z,992.27
2018-03-24T00:34:32.606Z,992.32
2018-03-24T00:35:38.105Z,992.32
2018-03-24T00:36:43.618Z,992.35
2018-03-24T00:37:49.183Z,992.31
2018-03-24T00:38:54.640Z,992.31
2018-03-24T00:40:00.147Z,992.32
2018-03-24T00:41:05.696Z,992.30
2018-03-24T00:42:11.168Z,992.30
2018-03-24T00:43:16.675Z,992.33
2018-03-24T00:44:22.178Z,992.28
2018-03-24T00:45:27.693Z,992.25
2018-03-24T00:46:33.201Z,992.28
2018-03-24T00:47:38.707Z,992.27
2018-03-24T00:48:44.230Z,992.28
2018-03-24T00:49:49.726Z,992.26
2018-03-24T00:50:55.238Z,992.28
2018-03-24T00:52:00.744Z,992.28
2018-03-24T00:53:06.255Z,992.25
2018-03-24T00:54:11.759Z,992.23
2018-03-24T00:55:17.263Z,992.22
2018-03-24T00:56:22.774Z,992.26
2018-03-24T00:57:28.279Z,992.27
2018-03-24T00:58:33.791Z,992.24
2018-03-24T00:59:39.297Z,992.25
2018-03-24T01:00:44.816Z,992.22
2018-03-24T01:01:50.317Z,992.20
2018-03-24T01:02:55.825Z,992.24
2018-03-24T01:04:01.340Z,992.23
2018-03-24T01:05:06.860Z,992.23
2018-03-24T01:06:12.353Z,992.26
2018-03-24T01:07:17.858Z,992.23
2018-03-24T01:08:23.365Z,992.28
2018-03-24T01:09:28.886Z,992.27
2018-03-24T01:10:34.383Z,992.25
2018-03-24T01:11:39.890Z,992.22
2018-03-24T01:12:45.409Z,992.24
2018-03-24T01:13:50.908Z,992.22
2018-03-24T01:14:56.420Z,992.20
2018-03-24T01:16:02.102Z,992.18
2018-03-24T01:17:07.455Z,992.13
2018-03-24T01:18:12.942Z,992.17
2018-03-24T01:19:18.474Z,992.17
2018-03-24T01:20:23.961Z,992.15
2018-03-24T01:21:29.484Z,992.12
2018-03-24T01:22:34.977Z,992.13
2018-03-24T01:23:40.487Z,992.12
2018-03-24T01:24:45.997Z,992.08
2018-03-24T01:25:51.503Z,992.10
2018-03-24T01:26:57.010Z,992.12
2018-03-24T01:28:02.527Z,992.09
2018-03-24T01:29:08.028Z,992.07
2018-03-24T01:30:13.536Z,992.05
2018-03-24T01:31:19.046Z,992.05
2018-03-24T01:32:24.554Z,992.05
2018-03-24T01:33:30.088Z,992.02
2018-03-24T01:34:35.570Z,992.04
2018-03-24T01:35:41.084Z,992.07
2018-03-24T01:36:46.587Z,992.05
2018-03-24T01:37:52.093Z,992.05
2018-03-24T01:38:57.603Z,992.07
2018-03-24T01:40:03.107Z,992.04
2018-03-24T01:41:08.615Z,992.10
2018-03-24T01:42:14.127Z,992.10
2018-03-24T01:43:19.633Z,992.06
2018-03-24T01:44:25.184Z,992.08
2018-03-24T01:45:30.650Z,992.09
2018-03-24T01:46:36.157Z,992.08
2018-03-24T01:47:41.674Z,992.10
2018-03-24T01:48:47.176Z,992.12
2018-03-24T01:49:52.692Z,992.11
2018-03-24T01:50:58.188Z,992.10
2018-03-24T01:52:03.702Z,992.11
2018-03-24T01:53:09.206Z,992.10
2018-03-24T01:54:14.710Z,992.10
2018-03-24T01:55:20.223Z,992.10
2018-03-24T01:56:25.725Z,992.11
2018-03-24T01:57:31.236Z,992.07
2018-03-24T01:58:36.741Z,992.09
2018-03-24T01:59:42.254Z,992.08
2018-03-24T02:00:47.758Z,992.13
2018-03-24T02:01:53.271Z,992.12
2018-03-24T02:02:58.777Z,992.09
2018-03-24T02:04:04.288Z,992.14
2018-03-24T02:05:09.788Z,992.12
2018-03-24T02:06:15.297Z,992.16
2018-03-24T02:07:20.805Z,992.12
2018-03-24T02:08:26.326Z,992.13
2018-03-24T02:09:31.823Z,992.12
2018-03-24T02:10:37.336Z,992.09
2018-03-24T02:11:42.842Z,992.08
2018-03-24T02:12:48.359Z,992.11
2018-03-24T02:13:53.854Z,992.08
2018-03-24T02:14:59.363Z,992.09
2018-03-24T02:16:04.893Z,992.06
2018-03-24T02:17:10.371Z,992.06
2018-03-24T02:18:15.887Z,992.04
2018-03-24T02:19:21.388Z,992.03
2018-03-24T02:20:26.891Z,992.05
2018-03-24T02:21:32.404Z,991.99
2018-03-24T02:22:37.907Z,992.04
2018-03-24T02:23:43.419Z,992.05
2018-03-24T02:24:48.924Z,992.05
2018-03-24T02:25:54.432Z,991.99
2018-03-24T02:26:59.942Z,992.02
2018-03-24T02:28:05.447Z,991.97
2018-03-24T02:29:10.960Z,991.97
2018-03-24T02:30:16.464Z,991.95
2018-03-24T02:31:21.990Z,991.95
2018-03-24T02:32:27.480Z,991.95
2018-03-24T02:33:32.984Z,991.93
2018-03-24T02:34:38.495Z,991.93
2018-03-24T02:35:43.998Z,991.95
2018-03-24T02:36:49.517Z,991.93
2018-03-24T02:37:55.017Z,991.97
2018-03-24T02:39:00.524Z,991.96
2018-03-24T02:40:06.033Z,991.99
2018-03-24T02:41:11.537Z,991.99
2018-03-24T02:42:17.054Z,992.02
2018-03-24T02:43:22.626Z,992.06
2018-03-24T02:44:28.055Z,992.03
2018-03-24T02:45:33.570Z,992.02
2018-03-24T02:46:39.076Z,992.01
2018-03-24T02:47:44.578Z,992.00
2018-03-24T02:48:50.091Z,991.96
2018-03-24T02:49:55.596Z,991.96
2018-03-24T02:51:01.115Z,991.95
2018-03-24T02:52:06.611Z,992.00
2018-03-24T02:53:12.218Z,991.99
2018-03-24T02:54:17.631Z,991.96
2018-03-24T02:55:23.131Z,991.97
2018-03-24T02:56:28.640Z,991.97
2018-03-24T02:57:34.153Z,991.98
2018-03-24T02:58:39.669Z,991.99
2018-03-24T02:59:45.170Z,991.97
2018-03-24T03:00:50.668Z,991.99
2018-03-24T03:01:56.173Z,991.99
2018-03-24T03:03:01.681Z,991.99
2018-03-24T03:04:07.188Z,991.97
2018-03-24T03:05:12.694Z,991.98
2018-03-24T03:06:18.202Z,991.98
2018-03-24T03:07:23.708Z,992.00
2018-03-24T03:08:29.223Z,991.98
2018-03-24T03:09:34.726Z,992.01
2018-03-24T03:10:40.236Z,992.01
2018-03-24T03:11:45.737Z,992.00
2018-03-24T03:12:51.246Z,991.95
2018-03-24T03:13:56.755Z,991.97
2018-03-24T03:15:02.260Z,992.00
2018-03-24T03:16:07.765Z,991.98
2018-03-24T03:17:13.274Z,991.97
2018-03-24T03:18:18.779Z,991.99
2018-03-24T03:19:24.288Z,992.02
2018-03-24T03:20:29.791Z,992.02
2018-03-24T03:21:35.299Z,992.00
2018-03-24T03:22:40.812Z,992.01
2018-03-24T03:23:46.314Z,992.03
2018-03-24T03:24:51.822Z,992.02
2018-03-24T03:25:57.327Z,992.05
2018-03-24T03:27:02.837Z,992.00
2018-03-24T03:28:08.348Z,992.05
2018-03-24T03:29:13.847Z,992.04
2018-03-24T03:30:19.357Z,992.06
2018-03-24T03:31:24.869Z,992.03
2018-03-24T03:32:30.368Z,992.07
2018-03-24T03:33:35.876Z,992.04
2018-03-24T03:34:41.385Z,992.04
2018-03-24T03:35:46.933Z,992.03
2018-03-24T03:36:52.396Z,992.03
2018-03-24T03:37:57.903Z,992.04
2018-03-24T03:39:03.415Z,992.04
2018-03-24T03:40:08.916Z,992.00
2018-03-24T03:41:14.424Z,992.02
2018-03-24T03:42:19.943Z,992.02
2018-03-24T03:43:25.450Z,992.02
2018-03-24T03:44:30.953Z,992.06
2018-03-24T03:45:36.456Z,992.09
2018-03-24T03:46:41.962Z,992.04
2018-03-24T03:47:47.464Z,992.04
2018-03-24T03:48:52.973Z,992.02
2018-03-24T03:49:58.478Z,992.04
2018-03-24T03:51:03.992Z,992.02
2018-03-24T03:52:09.497Z,992.03
2018-03-24T03:53:15.003Z,992.03
2018-03-24T03:54:20.533Z,992.01
2018-03-24T03:55:26.019Z,992.06
2018-03-24T03:56:31.522Z,992.04
2018-03-24T03:57:37.031Z,992.10
2018-03-24T03:58:42.532Z,992.08
2018-03-24T03:59:48.043Z,992.08
2018-03-24T04:00:53.553Z,992.06
2018-03-24T04:01:59.056Z,992.05
2018-03-24T04:03:04.561Z,992.10
2018-03-24T04:04:10.066Z,992.07
2018-03-24T04:05:15.576Z,992.05
2018-03-24T04:06:21.083Z,992.05
2018-03-24T04:07:26.588Z,992.04
2018-03-24T04:08:32.098Z,991.99
2018-03-24T04:09:37.607Z,992.02
2018-03-24T04:10:43.107Z,991.99
2018-03-24T04:11:48.618Z,991.98
2018-03-24T04:12:54.126Z,991.94
2018-03-24T04:13:59.632Z,991.97
2018-03-24T04:15:05.137Z,992.02
2018-03-24T04:16:10.645Z,991.97
2018-03-24T04:17:16.146Z,992.02
2018-03-24T04:18:21.664Z,992.00
2018-03-24T04:19:27.179Z,992.02
2018-03-24T04:20:32.677Z,992.02
2018-03-24T04:21:38.172Z,992.04
2018-03-24T04:22:43.680Z,992.04
2018-03-24T04:23:49.192Z,992.04
2018-03-24T04:24:54.702Z,992.03
2018-03-24T04:26:00.204Z,992.00
2018-03-24T04:27:05.711Z,991.99
2018-03-24T04:28:11.221Z,992.02
2018-03-24T04:29:16.756Z,992.03
2018-03-24T04:30:22.226Z,992.04
2018-03-24T04:31:27.740Z,992.04
2018-03-24T04:32:33.239Z,992.03
2018-03-24T04:33:38.746Z,992.07
2018-03-24T04:34:44.257Z,992.06
2018-03-24T04:35:49.756Z,992.09
2018-03-24T04:36:55.266Z,992.06
2018-03-24T04:38:00.774Z,992.05
2018-03-24T04:39:06.285Z,992.06
2018-03-24T04:40:11.782Z,992.09
2018-03-24T04:41:17.295Z,992.08
2018-03-24T04:42:22.812Z,992.10
2018-03-24T04:43:28.302Z,992.12
2018-03-24T04:44:33.806Z,992.09
2018-03-24T04:45:39.319Z,992.12
2018-03-24T04:46:44.824Z,992.09
2018-03-24T04:47:50.337Z,992.08
2018-03-24T04:48:55.835Z,992.07
2018-03-24T04:50:01.349Z,992.05
2018-03-24T04:51:06.848Z,992.05
2018-03-24T04:52:12.356Z,992.07
2018-03-24T04:53:17.866Z,992.03
2018-03-24T04:54:23.366Z,992.06
2018-03-24T04:55:28.876Z,992.06
2018-03-24T04:56:34.377Z,992.09
2018-03-24T04:57:39.891Z,992.06
2018-03-24T04:58:45.396Z,992.07
2018-03-24T04:59:50.898Z,992.09
2018-03-24T05:00:56.405Z,992.07
2018-03-24T05:02:01.916Z,992.06
2018-03-24T05:03:07.416Z,992.04
2018-03-24T05:04:12.925Z,992.02
2018-03-24T05:05:18.429Z,992.06
2018-03-24T05:06:23.954Z,992.08
2018-03-24T05:07:29.456Z,992.06
2018-03-24T05:08:34.958Z,992.08
2018-03-24T05:09:40.494Z,992.05
2018-03-24T05:10:45.962Z,992.14
2018-03-24T05:11:51.478Z,992.05
2018-03-24T05:12:57.036Z,992.04
2018-03-24T05:14:02.481Z,992.08
2018-03-24T05:15:07.990Z,992.09
2018-03-24T05:16:13.499Z,992.07
2018-03-24T05:17:19.001Z,992.02
2018-03-24T05:18:24.502Z,992.06
2018-03-24T05:19:30.019Z,992.03
2018-03-24T05:20:35.515Z,992.05
2018-03-24T05:21:41.022Z,992.05
2018-03-24T05:22:46.532Z,992.04
2018-03-24T05:23:52.037Z,992.04
2018-03-24T05:24:57.542Z,992.04
2018-03-24T05:26:03.050Z,992.04
2018-03-24T05:27:08.555Z,992.06
2018-03-24T05:28:14.069Z,992.02
2018-03-24T05:29:19.566Z,992.06
2018-03-24T05:30:25.078Z,992.05
2018-03-24T05:31:30.600Z,992.08
2018-03-24T05:32:36.119Z,992.08
2018-03-24T05:33:41.591Z,992.13
2018-03-24T05:34:47.098Z,992.11
2018-03-24T05:35:52.602Z,992.14
2018-03-24T05:36:58.113Z,992.14
2018-03-24T05:38:03.616Z,992.13
2018-03-24T05:39:09.130Z,992.09
2018-03-24T05:40:14.639Z,992.10
2018-03-24T05:41:20.172Z,992.10
2018-03-24T05:42:25.646Z,992.08
2018-03-24T05:43:31.152Z,992.08
2018-03-24T05:44:36.657Z,992.09
2018-03-24T05:45:42.166Z,992.12
2018-03-24T05:46:47.669Z,992.14
2018-03-24T05:47:53.184Z,992.13
2018-03-24T05:48:58.681Z,992.10
2018-03-24T05:50:04.186Z,992.13
2018-03-24T05:51:09.692Z,992.14
2018-03-24T05:52:15.200Z,992.16
2018-03-24T05:53:20.787Z,992.14
2018-03-24T05:54:26.218Z,992.20
2018-03-24T05:55:31.720Z,992.21
2018-03-24T05:56:37.226Z,992.16
2018-03-24T05:57:42.731Z,992.19
2018-03-24T05:58:48.236Z,992.15
2018-03-24T05:59:53.754Z,992.16
2018-03-24T06:00:59.251Z,992.16
2018-03-24T06:02:04.753Z,992.15
2018-03-24T06:03:10.265Z,992.19
2018-03-24T06:04:15.772Z,992.19
2018-03-24T06:05:21.284Z,992.19
2018-03-24T06:06:26.785Z,992.21
2018-03-24T06:07:32.292Z,992.29
2018-03-24T06:08:37.798Z,992.30
2018-03-24T06:09:43.306Z,992.28
2018-03-24T06:10:48.806Z,992.34
2018-03-24T06:11:54.314Z,992.33
2018-03-24T06:12:59.821Z,992.31
2018-03-24T06:14:05.334Z,992.33
2018-03-24T06:15:10.836Z,992.31
2018-03-24T06:16:16.349Z,992.35
2018-03-24T06:17:21.855Z,992.34
2018-03-24T06:18:27.360Z,992.34
2018-03-24T06:19:32.854Z,992.34
2018-03-24T06:20:38.365Z,992.38
2018-03-24T06:21:43.880Z,992.41
2018-03-24T06:22:49.384Z,992.42
2018-03-24T06:23:54.887Z,992.37
2018-03-24T06:25:00.391Z,992.36
2018-03-24T06:26:05.896Z,992.37
2018-03-24T06:27:11.406Z,992.34
2018-03-24T06:28:16.913Z,992.41
2018-03-24T06:29:22.418Z,992.36
2018-03-24T06:30:27.922Z,992.34
2018-03-24T06:31:33.434Z,992.34
2018-03-24T06:32:38.938Z,992.33
2018-03-24T06:33:44.457Z,992.34
2018-03-24T06:34:49.946Z,992.36
2018-03-24T06:35:55.457Z,992.39
2018-03-24T06:37:00.963Z,992.37
2018-03-24T06:38:06.490Z,992.39
2018-03-24T06:39:11.986Z,992.42
2018-03-24T06:40:17.484Z,992.39
2018-03-24T06:41:22.991Z,992.39
2018-03-24T06:42:28.496Z,992.36
2018-03-24T06:43:34.005Z,992.39
2018-03-24T06:44:39.507Z,992.41
2018-03-24T06:45:45.019Z,992.41
2018-03-24T06:46:50.528Z,992.44
2018-03-24T06:47:56.034Z,992.44
2018-03-24T06:49:01.544Z,992.45
2018-03-24T06:50:07.045Z,992.45
2018-03-24T06:51:12.561Z,992.45
2018-03-24T06:52:18.072Z,992.46
2018-03-24T06:53:23.574Z,992.43
2018-03-24T06:54:29.076Z,992.45
2018-03-24T06:55:34.583Z,992.41
2018-03-24T06:56:40.093Z,992.42
2018-03-24T06:57:45.599Z,992.40
2018-03-24T06:58:51.119Z,992.43
2018-03-24T06:59:56.617Z,992.42
2018-03-24T07:01:02.121Z,992.41
2018-03-24T07:02:07.636Z,992.41
2018-03-24T07:03:13.148Z,992.40
2018-03-24T07:04:18.645Z,992.40
2018-03-24T07:05:24.153Z,992.39
2018-03-24T07:06:29.672Z,992.48
2018-03-24T07:07:35.177Z,992.44
2018-03-24T07:08:40.704Z,992.44
2018-03-24T07:09:46.195Z,992.49
2018-03-24T07:10:51.697Z,992.52
2018-03-24T07:11:57.204Z,992.51
2018-03-24T07:13:02.716Z,992.52
2018-03-24T07:14:08.236Z,992.53
2018-03-24T07:15:13.726Z,992.56
2018-03-24T07:16:19.254Z,992.53
2018-03-24T07:17:24.856Z,992.56
2018-03-24T07:18:30.259Z,992.57
2018-03-24T07:19:35.782Z,992.57
2018-03-24T07:20:41.270Z,992.56
2018-03-24T07:21:46.783Z,992.55
2018-03-24T07:22:52.293Z,992.62
2018-03-24T07:23:57.806Z,992.61
2018-03-24T07:25:03.307Z,992.62
2018-03-24T07:26:08.836Z,992.64
2018-03-24T07:27:14.326Z,992.62
2018-03-24T07:28:19.832Z,992.61
2018-03-24T07:29:25.337Z,992.58
2018-03-24T07:30:30.847Z,992.59
2018-03-24T07:31:36.367Z,992.56
2018-03-24T07:32:41.867Z,992.58
2018-03-24T07:33:47.373Z,992.64
2018-03-24T07:34:52.887Z,992.61
2018-03-24T07:35:58.394Z,992.58
2018-03-24T07:37:03.909Z,992.63
2018-03-24T07:38:09.408Z,992.59
2018-03-24T07:39:14.924Z,992.62
2018-03-24T07:40:20.424Z,992.57
2018-03-24T07:41:25.942Z,992.57
2018-03-24T07:42:31.457Z,992.61
2018-03-24T07:43:36.954Z,992.64
2018-03-24T07:44:42.475Z,992.63
2018-03-24T07:45:47.972Z,992.67
2018-03-24T07:46:53.484Z,992.68
2018-03-24T07:47:58.997Z,992.72
2018-03-24T07:49:04.499Z,992.75
2018-03-24T07:50:10.012Z,992.76
2018-03-24T07:51:15.525Z,992.74
2018-03-24T07:52:21.031Z,992.74
2018-03-24T07:53:26.534Z,992.72
2018-03-24T07:54:32.056Z,992.74
2018-03-24T07:55:37.561Z,992.73
2018-03-24T07:56:43.067Z,992.75
2018-03-24T07:57:48.595Z,992.78
2018-03-24T07:58:54.135Z,992.74
2018-03-24T07:59:59.594Z,992.77
2018-03-24T08:01:05.126Z,992.74
2018-03-24T08:02:10.622Z,992.76
2018-03-24T08:03:16.117Z,992.80
2018-03-24T08:04:21.626Z,992.84
2018-03-24T08:05:27.138Z,992.82
2018-03-24T08:06:32.647Z,992.81
2018-03-24T08:07:38.156Z,992.81
2018-03-24T08:08:43.674Z,992.82
2018-03-24T08:09:49.179Z,992.86
2018-03-24T08:10:54.681Z,992.86
2018-03-24T08:12:00.195Z,992.84
2018-03-24T08:13:05.717Z,992.86
2018-03-24T08:14:11.228Z,992.80
2018-03-24T08:15:16.727Z,992.82
2018-03-24T08:16:22.236Z,992.90
2018-03-24T08:17:27.747Z,992.82
2018-03-24T08:18:33.254Z,992.91
2018-03-24T08:19:38.758Z,992.87
2018-03-24T08:20:44.273Z,992.87
2018-03-24T08:21:49.785Z,992.88
2018-03-24T08:22:55.303Z,992.87
2018-03-24T08:24:00.797Z,992.91
2018-03-24T08:25:06.312Z,992.91
2018-03-24T08:26:11.819Z,992.90
2018-03-24T08:27:17.336Z,992.86
2018-03-24T08:28:22.843Z,992.92
2018-03-24T08:29:28.353Z,992.93
2018-03-24T08:30:33.861Z,992.89
2018-03-24T08:31:39.372Z,992.94
2018-03-24T08:32:44.888Z,992.96
2018-03-24T08:33:50.403Z,992.96
2018-03-24T08:34:55.904Z,992.93
2018-03-24T08:36:01.417Z,992.94
2018-03-24T08:37:06.922Z,992.91
2018-03-24T08:38:12.428Z,992.89
2018-03-24T08:39:17.954Z,992.90
2018-03-24T08:40:23.448Z,992.90
2018-03-24T08:41:28.961Z,992.92
2018-03-24T08:42:34.475Z,992.93
2018-03-24T08:43:39.986Z,992.93
2018-03-24T08:44:45.526Z,992.94
2018-03-24T08:45:51.011Z,992.93
2018-03-24T08:46:56.526Z,992.94
2018-03-24T08:48:02.044Z,992.98
2018-03-24T08:49:07.538Z,992.98
2018-03-24T08:50:13.043Z,993.03
2018-03-24T08:51:18.565Z,992.99
2018-03-24T08:52:24.067Z,993.00
2018-03-24T08:53:29.577Z,993.02
2018-03-24T08:54:35.087Z,993.04
2018-03-24T08:55:40.598Z,993.03
2018-03-24T08:56:46.106Z,993.03
2018-03-24T08:57:51.622Z,993.03
2018-03-24T08:58:57.134Z,993.06
2018-03-24T09:00:02.643Z,993.02
2018-03-24T09:01:08.157Z,993.07
2018-03-24T09:02:13.673Z,993.02
2018-03-24T09:03:19.193Z,993.07
2018-03-24T09:04:24.686Z,993.11
2018-03-24T09:05:30.200Z,993.12
2018-03-24T09:06:35.703Z,993.11
2018-03-24T09:07:41.218Z,993.09
2018-03-24T09:08:46.746Z,993.14
2018-03-24T09:09:52.236Z,993.12
2018-03-24T09:10:57.746Z,993.12
2018-03-24T09:12:03.260Z,993.13
2018-03-24T09:13:08.772Z,993.11
2018-03-24T09:14:14.286Z,993.14
2018-03-24T09:15:19.795Z,993.15
2018-03-24T09:16:25.353Z,993.16
2018-03-24T09:17:30.825Z,993.19
2018-03-24T09:18:36.326Z,993.16
2018-03-24T09:19:41.841Z,993.14
2018-03-24T09:20:47.356Z,993.16
2018-03-24T09:21:52.862Z,993.17
2018-03-24T09:22:58.380Z,993.16
2018-03-24T09:24:03.891Z,993.14
2018-03-24T09:25:09.410Z,993.18
2018-03-24T09:26:14.902Z,993.14
2018-03-24T09:27:20.419Z,993.15
2018-03-24T09:28:25.925Z,993.17
2018-03-24T09:29:31.453Z,993.21
2018-03-24T09:30:36.954Z,993.20
2018-03-24T09:31:42.467Z,993.18
2018-03-24T09:32:47.974Z,993.17
2018-03-24T09:33:53.495Z,993.18
2018-03-24T09:34:59.052Z,993.12
2018-03-24T09:36:04.505Z,993.14
2018-03-24T09:37:10.030Z,993.12
2018-03-24T09:38:15.548Z,993.09
2018-03-24T09:39:21.048Z,993.15
2018-03-24T09:40:26.552Z,993.09
2018-03-24T09:41:32.068Z,993.11
2018-03-24T09:42:37.574Z,993.10
2018-03-24T09:43:43.090Z,993.10
2018-03-24T09:44:48.600Z,993.11
2018-03-24T09:45:54.117Z,993.14
2018-03-24T09:46:59.622Z,993.14
2018-03-24T09:48:05.136Z,993.09
2018-03-24T09:49:10.660Z,993.11
2018-03-24T09:50:16.172Z,993.12
2018-03-24T09:51:21.674Z,993.10
2018-03-24T09:52:27.180Z,993.10
2018-03-24T09:53:32.699Z,993.11
2018-03-24T09:54:38.214Z,993.10
2018-03-24T09:55:43.724Z,993.09
2018-03-24T09:56:49.237Z,993.08
2018-03-24T09:57:54.747Z,993.03
2018-03-24T09:59:00.252Z,993.00
2018-03-24T10:00:05.841Z,993.03
2018-03-24T10:01:11.279Z,993.02
2018-03-24T10:02:16.804Z,993.00
2018-03-24T10:03:22.396Z,993.02
2018-03-24T10:04:27.812Z,993.03
2018-03-24T10:05:33.328Z,992.99
2018-03-24T10:06:38.837Z,992.99
2018-03-24T10:07:44.351Z,993.03
2018-03-24T10:08:49.865Z,993.00
2018-03-24T10:09:55.403Z,992.96
2018-03-24T10:11:00.899Z,992.95
2018-03-24T10:12:06.400Z,992.97
2018-03-24T10:13:11.924Z,992.93
2018-03-24T10:14:17.430Z,992.90
2018-03-24T10:15:22.937Z,992.94
2018-03-24T10:16:28.457Z,992.95
2018-03-24T10:17:33.961Z,992.94
2018-03-24T10:18:39.478Z,992.97
2018-03-24T10:19:45.144Z,992.96
2018-03-24T10:20:50.524Z,992.95
2018-03-24T10:21:56.018Z,992.93
2018-03-24T10:23:01.526Z,992.90
2018-03-24T10:24:07.056Z,992.92
2018-03-24T10:25:12.553Z,992.87
2018-03-24T10:26:18.076Z,992.90
2018-03-24T10:27:23.578Z,992.90
2018-03-24T10:28:29.094Z,992.89
2018-03-24T10:29:34.612Z,992.85
2018-03-24T10:30:40.129Z,992.87
2018-03-24T10:31:45.639Z,992.89
2018-03-24T10:32:51.145Z,992.86
2018-03-24T10:33:56.668Z,992.83
2018-03-24T10:35:02.173Z,992.81
2018-03-24T10:36:07.687Z,992.83
2018-03-24T10:37:13.206Z,992.89
2018-03-24T10:38:18.717Z,992.86
2018-03-24T10:39:24.232Z,992.83
2018-03-24T10:40:29.746Z,992.86
2018-03-24T10:41:35.270Z,992.79
2018-03-24T10:42:40.768Z,992.85
2018-03-24T10:43:46.289Z,992.84
2018-03-24T10:44:51.794Z,992.79
2018-03-24T10:45:57.315Z,992.80
2018-03-24T10:47:02.829Z,992.78
2018-03-24T10:48:08.344Z,992.77
2018-03-24T10:49:13.847Z,992.78
2018-03-24T10:50:19.363Z,992.79
2018-03-24T10:51:24.876Z,992.78
2018-03-24T10:52:30.385Z,992.80
2018-03-24T10:53:35.912Z,992.76
2018-03-24T10:54:41.426Z,992.81
2018-03-24T10:55:46.940Z,992.74
2018-03-24T10:56:52.441Z,992.77
2018-03-24T10:57:57.999Z,992.80
2018-03-24T10:59:03.474Z,992.75
2018-03-24T11:00:08.993Z,992.74
2018-03-24T11:01:14.497Z,992.74
2018-03-24T11:02:20.017Z,992.76
2018-03-24T11:03:25.529Z,992.76
2018-03-24T11:04:31.042Z,992.70
2018-03-24T11:05:36.554Z,992.70
2018-03-24T11:06:42.075Z,992.77
2018-03-24T11:07:47.580Z,992.70
2018-03-24T11:08:53.093Z,992.72
2018-03-24T11:09:58.608Z,992.69
2018-03-24T11:11:04.155Z,992.65
2018-03-24T11:12:09.638Z,992.69
2018-03-24T11:13:15.168Z,992.67
2018-03-24T11:14:20.669Z,992.66
2018-03-24T11:15:26.185Z,992.62
2018-03-24T11:16:31.697Z,992.63
2018-03-24T11:17:37.211Z,992.65
2018-03-24T11:18:42.725Z,992.64
2018-03-24T11:19:48.242Z,992.66
2018-03-24T11:20:53.746Z,992.61
2018-03-24T11:21:59.260Z,992.61
2018-03-24T11:23:04.771Z,992.62
2018-03-24T11:24:10.285Z,992.60
2018-03-24T11:25:15.797Z,992.59
2018-03-24T11:26:21.325Z,992.61
2018-03-24T11:27:26.834Z,992.59
2018-03-24T11:28:32.344Z,992.54
2018-03-24T11:29:37.860Z,992.57
2018-03-24T11:30:43.381Z,992.56
2018-03-24T11:31:48.902Z,992.54
2018-03-24T11:32:54.396Z,992.57
2018-03-24T11:33:59.915Z,992.54
2018-03-24T11:35:05.439Z,992.55
2018-03-24T11:36:10.936Z,992.55
2018-03-24T11:37:16.456Z,992.55
2018-03-24T11:38:21.986Z,992.58
2018-03-24T11:39:27.493Z,992.58
2018-03-24T11:40:33.022Z,992.57
2018-03-24T11:41:38.512Z,992.54
2018-03-24T11:42:44.031Z,992.57
2018-03-24T11:43:49.544Z,992.54
2018-03-24T11:44:55.082Z,992.53
2018-03-24T11:46:00.567Z,992.54
2018-03-24T11:47:06.084Z,992.51
2018-03-24T11:48:11.597Z,992.57
2018-03-24T11:49:17.124Z,992.50
2018-03-24T11:50:22.626Z,992.49
2018-03-24T11:51:28.140Z,992.52
2018-03-24T11:52:33.652Z,992.48
2018-03-24T11:53:39.166Z,992.54
2018-03-24T11:54:44.680Z,992.47
2018-03-24T11:55:50.199Z,992.48
2018-03-24T11:56:55.708Z,992.51
2018-03-24T11:58:01.235Z,992.53
2018-03-24T11:59:06.737Z,992.52
2018-03-24T12:00:12.256Z,992.47
2018-03-24T12:01:17.766Z,992.53
2018-03-24T12:02:23.288Z,992.51
2018-03-24T12:03:28.817Z,992.49
2018-03-24T12:04:34.313Z,992.47
2018-03-24T12:05:39.824Z,992.46
2018-03-24T12:06:45.336Z,992.48
2018-03-24T12:07:50.876Z,992.50
2018-03-24T12:08:56.367Z,992.55
2018-03-24T12:10:01.911Z,992.53
2018-03-24T12:11:07.564Z,992.54
2018-03-24T12:12:12.911Z,992.50
2018-03-24T12:13:18.428Z,992.52
2018-03-24T12:14:23.950Z,992.53
2018-03-24T12:15:29.565Z,992.47
2018-03-24T12:16:34.976Z,992.48
2018-03-24T12:17:40.488Z,992.48
2018-03-24T12:18:46.007Z,992.52
2018-03-24T12:19:51.514Z,992.47
2018-03-24T12:20:57.028Z,992.47
2018-03-24T12:22:02.550Z,992.50
2018-03-24T12:23:08.065Z,992.46
2018-03-24T12:24:13.571Z,992.49
2018-03-24T12:25:19.087Z,992.47
2018-03-24T12:26:24.604Z,992.47
2018-03-24T12:27:30.171Z,992.44
2018-03-24T12:28:35.627Z,992.48
2018-03-24T12:29:41.140Z,992.48
2018-03-24T12:30:46.666Z,992.43
2018-03-24T12:31:52.179Z,992.43
2018-03-24T12:32:57.749Z,992.49
2018-03-24T12:34:03.207Z,992.48
2018-03-24T12:35:08.727Z,992.48
2018-03-24T12:36:14.226Z,992.52
2018-03-24T12:37:19.744Z,992.49
2018-03-24T12:38:25.260Z,992.49
2018-03-24T12:39:30.777Z,992.54
2018-03-24T12:40:36.305Z,992.52
2018-03-24T12:41:41.809Z,992.55
2018-03-24T12:42:47.317Z,992.52
2018-03-24T12:43:52.828Z,992.54
2018-03-24T12:44:58.358Z,992.50
2018-03-24T12:46:03.950Z,992.52
2018-03-24T12:47:09.377Z,992.49
2018-03-24T12:48:14.886Z,992.54
2018-03-24T12:49:20.403Z,992.54
2018-03-24T12:50:25.915Z,992.54
2018-03-24T12:51:31.433Z,992.49
2018-03-24T12:52:36.954Z,992.53
2018-03-24T12:53:42.465Z,992.44
2018-03-24T12:54:47.978Z,992.46
2018-03-24T12:55:53.488Z,992.43
2018-03-24T12:56:59.004Z,992.43
2018-03-24T12:58:04.514Z,992.43
2018-03-24T12:59:10.028Z,992.48
2018-03-24T13:00:15.547Z,992.40
2018-03-24T13:01:21.070Z,992.46
2018-03-24T13:02:26.584Z,992.43
2018-03-24T13:03:32.093Z,992.38
2018-03-24T13:04:37.601Z,992.37
2018-03-24T13:05:43.124Z,992.38
2018-03-24T13:06:48.631Z,992.40
2018-03-24T13:07:54.149Z,992.34
2018-03-24T13:08:59.661Z,992.37
2018-03-24T13:10:05.175Z,992.34
2018-03-24T13:11:10.706Z,992.34
2018-03-24T13:12:16.206Z,992.31
2018-03-24T13:13:21.718Z,992.33
2018-03-24T13:14:27.307Z,992.33
2018-03-24T13:15:32.748Z,992.33
2018-03-24T13:16:38.285Z,992.32
2018-03-24T13:17:43.776Z,992.35
2018-03-24T13:18:49.297Z,992.37
2018-03-24T13:19:54.812Z,992.37
2018-03-24T13:21:00.321Z,992.38
2018-03-24T13:22:05.835Z,992.43
2018-03-24T13:23:11.352Z,992.39
2018-03-24T13:24:16.884Z,992.36
2018-03-24T13:25:22.386Z,992.36
2018-03-24T13:26:27.895Z,992.38
2018-03-24T13:27:33.415Z,992.35
2018-03-24T13:28:38.927Z,992.35
2018-03-24T13:29:44.442Z,992.35
2018-03-24T13:30:49.952Z,992.37
2018-03-24T13:31:55.467Z,992.40
2018-03-24T13:33:00.987Z,992.42
2018-03-24T13:34:06.496Z,992.38
2018-03-24T13:35:12.028Z,992.37
2018-03-24T13:36:17.526Z,992.39
2018-03-24T13:37:23.047Z,992.43